createdAt,value
2019-01-14T00:00:42.031Z,8.83
2019-01-14T00:03:11.930Z,6.87
2019-01-14T00:05:41.779Z,6.60
2019-01-14T00:08:11.525Z,6.17
2019-01-14T00:10:41.188Z,4.93
2019-01-14T00:13:10.877Z,6.00
2019-01-14T00:15:40.614Z,8.87
2019-01-14T00:18:10.512Z,5.23
2019-01-14T00:20:40.385Z,6.87
2019-01-14T00:23:10.172Z,8.17
2019-01-14T00:25:39.822Z,6.20
2019-01-14T00:28:09.663Z,9.47
2019-01-14T00:30:39.326Z,4.60
2019-01-14T00:33:09.061Z,8.37
2019-01-14T00:35:38.767Z,5.27
2019-01-14T00:38:08.510Z,5.20
2019-01-14T00:40:38.298Z,8.37
2019-01-14T00:43:08.106Z,7.03
2019-01-14T00:45:37.827Z,7.43
2019-01-14T00:48:07.549Z,8.90
2019-01-14T00:50:37.185Z,8.00
2019-01-14T00:53:06.955Z,6.70
2019-01-14T00:55:36.670Z,5.80
2019-01-14T00:58:06.458Z,8.00
2019-01-14T01:00:36.439Z,8.67
2019-01-14T01:03:06.903Z,9.37
2019-01-14T01:05:36.719Z,11.03
2019-01-14T01:08:06.682Z,11.03
2019-01-14T01:10:36.357Z,10.33
2019-01-14T01:13:06.279Z,10.50
2019-01-14T01:15:36.105Z,13.37
2019-01-14T01:18:06.123Z,12.37
2019-01-14T01:20:36.731Z,7.83
2019-01-14T01:23:06.389Z,15.60
2019-01-14T01:25:36.142Z,12.13
2019-01-14T01:28:05.854Z,11.67
2019-01-14T01:30:35.554Z,13.50
2019-01-14T01:33:05.273Z,11.97
2019-01-14T01:35:34.989Z,19.23
2019-01-14T01:38:04.829Z,13.40
2019-01-14T01:40:34.640Z,16.07
2019-01-14T01:43:04.577Z,18.17
2019-01-14T01:45:34.240Z,15.83
2019-01-14T01:48:03.996Z,11.90
2019-01-14T01:50:33.718Z,16.53
2019-01-14T01:53:03.395Z,14.10
2019-01-14T01:55:33.239Z,24.73
2019-01-14T01:58:02.913Z,25.77
2019-01-14T02:00:32.888Z,21.20
2019-01-14T02:03:02.534Z,21.97
2019-01-14T02:05:32.362Z,17.30
2019-01-14T02:08:02.099Z,15.97
2019-01-14T02:10:31.937Z,19.83
2019-01-14T02:13:01.579Z,18.97
2019-01-14T02:15:31.362Z,20.97
2019-01-14T02:18:01.009Z,14.43
2019-01-14T02:20:30.791Z,14.50
2019-01-14T02:23:00.463Z,11.53
2019-01-14T02:25:30.167Z,10.77
2019-01-14T02:27:59.902Z,12.50
2019-01-14T02:30:29.655Z,18.37
2019-01-14T02:32:59.352Z,16.20
2019-01-14T02:35:29.028Z,10.83
2019-01-14T02:37:58.705Z,17.73
2019-01-14T02:40:28.446Z,12.60
2019-01-14T02:42:58.123Z,15.10
2019-01-14T02:45:27.875Z,15.30
2019-01-14T02:47:57.581Z,17.57
2019-01-14T02:50:27.227Z,12.50
2019-01-14T02:52:56.861Z,12.53
2019-01-14T02:55:26.611Z,13.47
2019-01-14T02:57:56.323Z,9.17
2019-01-14T03:00:27.724Z,15.17
2019-01-14T03:02:57.471Z,16.47
2019-01-14T03:05:27.191Z,17.37
2019-01-14T03:07:57.119Z,14.10
2019-01-14T03:10:26.823Z,14.63
2019-01-14T03:12:56.578Z,14.13
2019-01-14T03:15:26.330Z,18.37
2019-01-14T03:17:56.086Z,15.13
2019-01-14T03:20:25.979Z,14.80
2019-01-14T03:22:55.721Z,17.90
2019-01-14T03:25:25.465Z,12.33
2019-01-14T03:27:55.162Z,14.73
2019-01-14T03:30:24.967Z,13.47
2019-01-14T03:32:54.724Z,14.10
2019-01-14T03:35:24.589Z,11.67
2019-01-14T03:37:54.512Z,9.20
2019-01-14T03:40:24.226Z,11.40
2019-01-14T03:42:53.894Z,14.50
2019-01-14T03:45:23.747Z,23.00
2019-01-14T03:47:53.478Z,16.10
2019-01-14T03:50:23.760Z,17.53
2019-01-14T03:52:53.814Z,15.40
2019-01-14T03:55:23.663Z,19.20
2019-01-14T03:57:54.687Z,21.03
2019-01-14T04:00:25.089Z,14.77
2019-01-14T04:02:54.842Z,17.77
2019-01-14T04:05:24.574Z,13.47
2019-01-14T04:07:54.469Z,19.53
2019-01-14T04:10:24.244Z,16.43
2019-01-14T04:12:54.055Z,14.53
2019-01-14T04:15:23.768Z,11.80
2019-01-14T04:17:53.558Z,14.37
2019-01-14T04:20:23.417Z,11.40
2019-01-14T04:22:53.073Z,13.27
2019-01-14T04:25:22.769Z,14.00
2019-01-14T04:27:52.574Z,16.10
2019-01-14T04:30:24.166Z,18.33
2019-01-14T04:32:53.903Z,15.57
2019-01-14T04:35:23.867Z,14.90
2019-01-14T04:37:53.679Z,15.10
2019-01-14T04:40:23.555Z,8.73
2019-01-14T04:42:53.298Z,13.67
2019-01-14T04:45:23.043Z,14.13
2019-01-14T04:47:52.699Z,11.13
2019-01-14T04:50:23.359Z,10.03
2019-01-14T04:52:53.012Z,12.73
2019-01-14T04:55:22.849Z,12.80
2019-01-14T04:57:52.556Z,13.83
2019-01-14T05:00:24.733Z,13.50
2019-01-14T05:02:54.654Z,14.57
2019-01-14T05:05:24.757Z,15.10
2019-01-14T05:07:54.569Z,12.27
2019-01-14T05:10:24.482Z,16.83
2019-01-14T05:12:54.177Z,16.33
2019-01-14T05:15:23.907Z,19.73
2019-01-14T05:17:53.616Z,12.27
2019-01-14T05:20:26.099Z,14.47
2019-01-14T05:22:56.689Z,13.50
2019-01-14T05:25:26.567Z,12.13
2019-01-14T05:27:56.339Z,13.37
2019-01-14T05:30:26.268Z,13.73
2019-01-14T05:32:55.977Z,12.13
2019-01-14T05:35:25.820Z,16.97
2019-01-14T05:37:55.599Z,14.63
2019-01-14T05:40:26.856Z,13.63
2019-01-14T05:42:56.645Z,9.87
2019-01-14T05:45:26.549Z,13.67
2019-01-14T05:47:56.200Z,11.30
2019-01-14T05:50:25.951Z,13.13
2019-01-14T05:52:55.739Z,14.33
2019-01-14T05:55:25.438Z,11.90
2019-01-14T05:57:55.094Z,12.33
2019-01-14T06:00:33.429Z,12.17
2019-01-14T06:03:03.155Z,14.33
2019-01-14T06:05:32.908Z,12.03
2019-01-14T06:08:02.703Z,14.70
2019-01-14T06:10:32.446Z,12.23
2019-01-14T06:13:02.127Z,13.90
2019-01-14T06:15:32.073Z,13.00
2019-01-14T06:18:01.808Z,14.73
2019-01-14T06:20:32.002Z,11.90
2019-01-14T06:23:01.790Z,15.83
2019-01-14T06:25:31.646Z,12.17
2019-01-14T06:28:01.655Z,15.47
2019-01-14T06:30:32.120Z,19.00
2019-01-14T06:33:01.805Z,26.03
2019-01-14T06:35:31.881Z,23.80
2019-01-14T06:38:01.730Z,20.53
2019-01-14T06:40:31.547Z,25.73
2019-01-14T06:43:02.649Z,19.97
2019-01-14T06:45:32.317Z,22.37
2019-01-14T06:48:02.165Z,14.60
2019-01-14T06:50:31.959Z,19.90
2019-01-14T06:53:02.088Z,15.50
2019-01-14T06:55:31.731Z,16.97
2019-01-14T06:58:01.383Z,13.10
2019-01-14T07:00:31.266Z,19.77
2019-01-14T07:03:01.119Z,17.83
2019-01-14T07:05:30.810Z,20.60
2019-01-14T07:08:00.631Z,22.93
2019-01-14T07:10:31.926Z,17.30
2019-01-14T07:13:01.759Z,15.47
2019-01-14T07:15:31.480Z,15.90
2019-01-14T07:18:01.183Z,14.07
2019-01-14T07:20:30.947Z,25.90
2019-01-14T07:23:00.598Z,25.67
2019-01-14T07:25:30.348Z,18.40
2019-01-14T07:28:00.183Z,14.33
2019-01-14T07:30:30.009Z,17.70
2019-01-14T07:32:59.684Z,13.57
2019-01-14T07:35:29.422Z,15.43
2019-01-14T07:38:02.866Z,14.67
2019-01-14T07:40:30.515Z,17.63
2019-01-14T07:43:00.303Z,15.00
2019-01-14T07:45:30.019Z,23.30
2019-01-14T07:47:59.850Z,18.27
2019-01-14T07:50:29.518Z,17.83
2019-01-14T07:52:59.342Z,24.63
2019-01-14T07:55:29.106Z,19.63
2019-01-14T07:57:58.858Z,17.87
2019-01-14T08:00:28.536Z,12.73
2019-01-14T08:02:58.272Z,10.10
2019-01-14T08:05:28.197Z,14.73
2019-01-14T08:07:57.895Z,7.73
2019-01-14T08:10:27.565Z,7.87
2019-01-14T08:12:57.293Z,7.87
2019-01-14T08:15:27.042Z,9.93
2019-01-14T08:17:56.766Z,14.20
2019-01-14T08:20:26.467Z,14.73
2019-01-14T08:22:56.244Z,13.47
2019-01-14T08:25:26.285Z,23.97
2019-01-14T08:27:56.024Z,17.40
2019-01-14T08:30:25.965Z,17.03
2019-01-14T08:32:55.647Z,17.17
2019-01-14T08:35:25.323Z,15.23
2019-01-14T08:37:55.134Z,15.03
2019-01-14T08:40:24.874Z,12.17
2019-01-14T08:42:54.559Z,12.97
2019-01-14T08:45:24.265Z,11.67
2019-01-14T08:50:28.734Z,10.40
2019-01-14T08:52:58.570Z,11.23
2019-01-14T08:55:28.434Z,12.13
2019-01-14T08:57:58.149Z,14.13
2019-01-14T09:00:28.030Z,12.37
2019-01-14T09:02:57.769Z,15.30
2019-01-14T09:05:27.694Z,15.20
2019-01-14T09:07:57.502Z,10.73
2019-01-14T09:10:27.517Z,9.60
2019-01-14T09:12:57.312Z,12.70
2019-01-14T09:15:27.222Z,13.80
2019-01-14T09:18:02.699Z,9.13
2019-01-14T09:20:28.830Z,17.10
2019-01-14T09:22:58.507Z,17.63
2019-01-14T09:25:28.301Z,9.83
2019-01-14T09:27:58.206Z,14.80
2019-01-14T09:30:28.231Z,15.77
2019-01-14T09:32:58.158Z,18.03
2019-01-14T09:35:27.972Z,16.10
2019-01-14T09:37:57.655Z,17.50
2019-01-14T09:40:27.446Z,22.17
2019-01-14T09:42:57.278Z,12.63
2019-01-14T09:45:27.008Z,11.77
2019-01-14T09:47:56.830Z,15.03
2019-01-14T09:50:26.615Z,14.80
2019-01-14T09:52:57.653Z,17.27
2019-01-14T09:55:27.417Z,15.27
2019-01-14T09:57:57.183Z,14.70
2019-01-14T10:00:27.050Z,14.87
2019-01-14T10:02:57.041Z,19.13
2019-01-14T10:05:26.906Z,22.57
2019-01-14T10:07:56.645Z,21.70
2019-01-14T10:10:26.787Z,17.10
2019-01-14T10:12:56.643Z,16.80
2019-01-14T10:15:27.981Z,13.20
2019-01-14T10:17:59.514Z,9.33
2019-01-14T10:20:29.271Z,7.43
2019-01-14T10:22:59.222Z,7.83
2019-01-14T10:25:29.588Z,4.40
2019-01-14T10:27:59.314Z,7.27
2019-01-14T10:30:29.114Z,5.07
2019-01-14T10:32:58.884Z,3.50
2019-01-14T10:35:28.554Z,5.17
2019-01-14T10:37:58.258Z,6.20
2019-01-14T10:40:27.897Z,11.80
2019-01-14T10:42:57.724Z,8.03
2019-01-14T10:45:27.383Z,13.73
2019-01-14T10:47:57.134Z,8.10
2019-01-14T10:50:26.889Z,9.87
2019-01-14T10:52:56.609Z,9.93
2019-01-14T10:55:26.458Z,8.67
2019-01-14T10:57:56.089Z,10.30
2019-01-14T11:00:27.576Z,13.30
2019-01-14T11:02:57.926Z,8.30
2019-01-14T11:05:29.770Z,6.70
2019-01-14T11:07:59.596Z,8.57
2019-01-14T11:10:29.383Z,4.60
2019-01-14T11:12:59.207Z,9.23
2019-01-14T11:15:28.992Z,16.00
2019-01-14T11:17:58.689Z,11.80
2019-01-14T11:20:30.842Z,13.60
2019-01-14T11:23:02.673Z,9.90
2019-01-14T11:25:32.482Z,7.63
2019-01-14T11:28:02.479Z,8.47
2019-01-14T11:30:32.682Z,13.50
2019-01-14T11:33:02.697Z,12.97
2019-01-14T11:35:32.431Z,8.63
2019-01-14T11:38:02.131Z,9.67
2019-01-14T11:40:35.637Z,8.60
2019-01-14T11:43:05.699Z,9.90
2019-01-14T11:45:35.668Z,7.30
2019-01-14T11:48:05.868Z,9.20
2019-01-14T11:50:35.705Z,7.37
2019-01-14T11:53:05.882Z,11.17
2019-01-14T11:55:35.654Z,6.73
2019-01-14T11:58:05.685Z,7.87
2019-01-14T12:00:37.124Z,11.73
2019-01-14T12:03:08.619Z,7.30
2019-01-14T12:05:38.618Z,7.07
2019-01-14T12:08:08.415Z,11.07
2019-01-14T12:10:38.197Z,6.07
2019-01-14T12:13:07.901Z,9.73
2019-01-14T12:15:37.557Z,12.73
2019-01-14T12:18:07.544Z,9.30
2019-01-14T12:20:37.494Z,10.07
2019-01-14T12:23:07.386Z,11.77
2019-01-14T12:25:37.102Z,10.33
2019-01-14T12:28:06.865Z,16.10
2019-01-14T12:30:39.205Z,9.27
2019-01-14T12:33:09.053Z,3.43
2019-01-14T12:35:39.501Z,3.73
2019-01-14T12:38:09.443Z,8.70
2019-01-14T12:40:39.175Z,5.07
2019-01-14T12:43:08.963Z,6.60
2019-01-14T12:45:38.713Z,11.57
2019-01-14T12:48:08.631Z,7.30
2019-01-14T12:50:38.503Z,13.90
2019-01-14T12:53:08.251Z,12.93
2019-01-14T12:55:37.960Z,15.00
2019-01-14T12:58:07.707Z,14.60
2019-01-14T13:00:37.392Z,14.13
2019-01-14T13:03:07.167Z,13.27
2019-01-14T13:05:36.987Z,10.87
2019-01-14T13:08:07.105Z,10.77
2019-01-14T13:10:36.874Z,10.73
2019-01-14T13:13:06.684Z,9.53
2019-01-14T13:15:36.586Z,6.40
2019-01-14T13:18:06.478Z,10.77
2019-01-14T13:20:36.311Z,6.87
2019-01-14T13:23:06.183Z,9.57
2019-01-14T13:25:35.851Z,7.03
2019-01-14T13:28:06.183Z,9.93
2019-01-14T13:30:35.931Z,10.00
2019-01-14T13:33:05.901Z,8.90
2019-01-14T13:35:35.682Z,7.50
2019-01-14T13:38:06.051Z,12.10
2019-01-14T13:40:35.899Z,11.93
2019-01-14T13:43:05.740Z,6.17
2019-01-14T13:45:35.503Z,12.13
2019-01-14T13:48:05.805Z,6.80
2019-01-14T13:50:35.611Z,8.37
2019-01-14T13:53:05.516Z,7.37
2019-01-14T13:55:35.313Z,7.50
2019-01-14T13:58:05.251Z,9.80
2019-01-14T14:00:34.980Z,5.23
2019-01-14T14:03:04.721Z,5.20
2019-01-14T14:05:34.389Z,6.47
2019-01-14T14:08:04.044Z,11.63
2019-01-14T14:10:34.140Z,4.20
2019-01-14T14:13:03.941Z,6.63
2019-01-14T14:15:33.837Z,8.33
2019-01-14T14:18:03.840Z,6.47
2019-01-14T14:20:33.659Z,6.07
2019-01-14T14:23:03.455Z,7.57
2019-01-14T14:25:33.213Z,7.23
2019-01-14T14:28:03.184Z,5.93
2019-01-14T14:30:36.337Z,7.23
2019-01-14T14:33:06.367Z,11.47
2019-01-14T14:35:36.208Z,7.93
2019-01-14T14:38:06.564Z,6.77
2019-01-14T14:40:36.317Z,8.90
2019-01-14T14:43:06.415Z,10.90
2019-01-14T14:45:36.270Z,7.10
2019-01-14T14:48:06.507Z,7.90
2019-01-14T14:50:36.309Z,5.93
2019-01-14T14:53:06.233Z,10.00
2019-01-14T14:55:35.899Z,8.23
2019-01-14T14:58:06.037Z,6.40
2019-01-14T15:00:35.721Z,8.57
2019-01-14T15:03:05.611Z,8.40
2019-01-14T15:05:35.330Z,6.97
2019-01-14T15:08:05.814Z,11.70
2019-01-14T15:10:35.468Z,10.67
2019-01-14T15:13:05.405Z,8.73
2019-01-14T15:15:35.105Z,10.40
2019-01-14T15:18:05.310Z,3.53
2019-01-14T15:20:35.053Z,5.43
2019-01-14T15:23:04.950Z,4.40
2019-01-14T15:25:34.779Z,11.13
2019-01-14T15:28:04.729Z,4.57
2019-01-14T15:30:34.773Z,4.20
2019-01-14T15:33:04.758Z,5.63
2019-01-14T15:35:34.432Z,8.87
2019-01-14T15:38:07.950Z,4.87
2019-01-14T15:40:37.763Z,3.63
2019-01-14T15:43:07.576Z,7.80
2019-01-14T15:45:37.276Z,7.63
2019-01-14T15:48:07.067Z,6.80
2019-01-14T15:50:36.764Z,8.17
2019-01-14T15:53:06.613Z,6.70
2019-01-14T15:55:36.321Z,11.57
2019-01-14T15:58:06.080Z,11.17
2019-01-14T16:00:35.803Z,8.40
2019-01-14T16:03:05.607Z,10.70
2019-01-14T16:05:35.497Z,11.40
2019-01-14T16:08:05.387Z,4.67
2019-01-14T16:10:35.241Z,5.83
2019-01-14T16:13:05.044Z,9.87
2019-01-14T16:15:34.697Z,11.70
2019-01-14T16:18:04.522Z,10.00
2019-01-14T16:20:34.187Z,8.90
2019-01-14T16:23:04.018Z,9.03
2019-01-14T16:25:33.719Z,6.90
2019-01-14T16:28:03.422Z,8.53
2019-01-14T16:30:33.177Z,11.30
2019-01-14T16:33:04.144Z,12.57
2019-01-14T16:35:33.918Z,16.87
2019-01-14T16:38:03.700Z,22.33
2019-01-14T16:40:33.638Z,21.70
2019-01-14T16:43:04.458Z,22.83
2019-01-14T16:45:35.158Z,19.80
2019-01-14T16:48:04.943Z,17.97
2019-01-14T16:50:34.665Z,13.77
2019-01-14T16:53:04.411Z,15.90
2019-01-14T16:55:35.808Z,14.77
2019-01-14T16:58:05.535Z,17.53
2019-01-14T17:00:35.352Z,13.90
2019-01-14T17:03:05.306Z,11.23
2019-01-14T17:05:35.635Z,11.97
2019-01-14T17:08:05.844Z,10.17
2019-01-14T17:10:35.527Z,10.20
2019-01-14T17:13:05.450Z,10.40
2019-01-14T17:15:35.150Z,10.60
2019-01-14T17:18:05.378Z,9.47
2019-01-14T17:20:35.274Z,10.50
2019-01-14T17:23:05.409Z,7.90
2019-01-14T17:28:10.514Z,11.37
2019-01-14T17:30:40.256Z,13.80
2019-01-14T17:33:09.981Z,15.77
2019-01-14T17:35:39.906Z,13.70
2019-01-14T17:38:09.718Z,12.97
2019-01-14T17:40:39.617Z,13.43
2019-01-14T17:43:09.321Z,13.23
2019-01-14T17:45:39.083Z,17.47
2019-01-14T17:48:09.011Z,12.77
2019-01-14T17:50:40.420Z,22.93
2019-01-14T17:53:10.474Z,24.93
2019-01-14T17:55:40.262Z,26.47
2019-01-14T17:58:10.059Z,18.03
2019-01-14T18:00:40.407Z,49.03
2019-01-14T18:03:10.183Z,46.50
2019-01-14T18:05:40.006Z,44.60
2019-01-14T18:08:43.709Z,27.73
2019-01-14T18:11:27.083Z,15.53
2019-01-14T18:13:57.012Z,13.67
2019-01-14T18:16:38.924Z,14.13
2019-01-14T18:22:32.211Z,9.80
2019-01-14T18:25:19.071Z,11.27
2019-01-14T18:28:18.367Z,12.27
2019-01-14T18:30:54.651Z,14.03
2019-01-14T18:33:24.889Z,10.13
2019-01-14T18:35:58.729Z,12.13
2019-01-14T18:38:41.980Z,14.23
2019-01-14T18:41:18.406Z,12.87
2019-01-14T18:44:02.883Z,15.33
2019-01-14T18:46:42.749Z,16.63
2019-01-14T18:49:23.075Z,13.63
2019-01-14T18:51:52.784Z,11.07
2019-01-14T18:54:27.989Z,11.37
2019-01-14T18:57:09.937Z,12.33
2019-01-14T18:59:48.881Z,10.83
2019-01-14T19:02:31.035Z,7.83
2019-01-14T19:05:20.083Z,18.00
2019-01-14T19:07:50.381Z,8.93
2019-01-14T19:10:20.243Z,11.67
2019-01-14T19:12:50.110Z,12.67
2019-01-14T19:15:20.494Z,11.57
2019-01-14T19:17:50.271Z,8.20
2019-01-14T19:20:23.628Z,9.50
2019-01-14T19:22:53.586Z,8.60
2019-01-14T19:25:23.388Z,10.77
2019-01-14T19:27:53.133Z,11.17
2019-01-14T19:30:23.758Z,16.33
2019-01-14T19:32:53.571Z,12.63
2019-01-14T19:35:23.290Z,11.63
2019-01-14T19:37:53.031Z,18.67
2019-01-14T19:40:23.208Z,14.77
2019-01-14T19:42:53.403Z,18.13
2019-01-14T19:45:23.465Z,15.13
2019-01-14T19:47:53.307Z,14.00
2019-01-14T19:50:24.080Z,8.70
2019-01-14T19:52:54.336Z,10.37
2019-01-14T19:55:24.117Z,8.33
2019-01-14T19:57:54.284Z,8.77
2019-01-14T20:00:28.293Z,7.20
2019-01-14T20:02:59.895Z,9.00
2019-01-14T20:05:29.627Z,9.80
2019-01-14T20:07:59.450Z,12.03
2019-01-14T20:10:29.301Z,10.43
2019-01-14T20:12:59.118Z,15.17
2019-01-14T20:15:29.946Z,22.13
2019-01-14T20:17:59.583Z,22.60
2019-01-14T20:20:31.003Z,17.97
2019-01-14T20:23:01.561Z,14.87
2019-01-14T20:25:31.377Z,11.27
2019-01-14T20:28:02.502Z,12.37
2019-01-14T20:30:33.814Z,8.97
2019-01-14T20:33:06.078Z,10.87
2019-01-14T20:35:36.135Z,8.37
2019-01-14T20:38:09.235Z,9.33
2019-01-14T20:40:38.961Z,10.70
2019-01-14T20:43:08.670Z,15.30
2019-01-14T20:45:38.439Z,18.57
2019-01-14T20:48:08.247Z,15.27
2019-01-14T20:50:38.982Z,17.50
2019-01-14T20:53:13.580Z,20.60
2019-01-14T20:55:40.297Z,14.00
2019-01-14T20:58:09.979Z,12.67
2019-01-14T21:00:39.820Z,10.97
2019-01-14T21:03:11.068Z,15.17
2019-01-14T21:05:40.869Z,13.23
2019-01-14T21:08:10.590Z,12.53
2019-01-14T21:10:40.265Z,12.50
2019-01-14T21:13:09.942Z,10.97
2019-01-14T21:15:39.710Z,9.63
2019-01-14T21:18:09.380Z,9.53
2019-01-14T21:20:39.322Z,8.60
2019-01-14T21:23:09.107Z,7.80
2019-01-14T21:25:38.741Z,13.07
2019-01-14T21:28:08.473Z,10.27
2019-01-14T21:30:38.232Z,9.07
2019-01-14T21:33:07.895Z,10.03
2019-01-14T21:35:37.739Z,12.40
2019-01-14T21:38:07.405Z,11.73
2019-01-14T21:40:37.101Z,10.23
2019-01-14T21:43:06.835Z,11.37
2019-01-14T21:45:36.663Z,9.23
2019-01-14T21:48:06.567Z,12.07
2019-01-14T21:50:36.249Z,15.67
2019-01-14T21:53:06.032Z,13.17
2019-01-14T21:55:35.672Z,15.20
2019-01-14T21:58:05.405Z,11.63
2019-01-14T22:00:35.247Z,11.77
2019-01-14T22:03:04.969Z,8.07
2019-01-14T22:05:34.640Z,10.10
2019-01-14T22:08:05.652Z,13.67
2019-01-14T22:10:36.124Z,13.03
2019-01-14T22:13:05.960Z,11.10
2019-01-14T22:15:35.688Z,10.37
2019-01-14T22:18:05.550Z,15.70
2019-01-14T22:20:35.214Z,12.40
2019-01-14T22:23:04.999Z,14.97
2019-01-14T22:25:34.662Z,14.77
2019-01-14T22:28:04.317Z,12.93
2019-01-14T22:30:34.096Z,13.30
2019-01-14T22:33:03.932Z,11.70
2019-01-14T22:35:33.632Z,18.50
2019-01-14T22:38:03.332Z,21.47
2019-01-14T22:40:33.049Z,29.10
2019-01-14T22:43:04.279Z,32.47
2019-01-14T22:45:34.171Z,25.97
2019-01-14T22:48:03.923Z,33.67
2019-01-14T22:50:33.556Z,29.47
2019-01-14T22:53:03.413Z,27.23
2019-01-14T22:55:33.130Z,20.27
2019-01-14T22:58:02.938Z,21.73
2019-01-14T23:00:58.078Z,20.87
2019-01-14T23:03:28.052Z,22.30
2019-01-14T23:05:57.721Z,21.57
2019-01-14T23:08:27.483Z,27.73
2019-01-14T23:10:57.131Z,22.97
2019-01-14T23:13:26.872Z,16.33
2019-01-14T23:15:58.162Z,14.57
2019-01-14T23:18:28.009Z,12.80
2019-01-14T23:20:57.797Z,13.53
2019-01-14T23:23:27.610Z,13.73
2019-01-14T23:25:57.478Z,10.43
2019-01-14T23:28:27.406Z,10.57
2019-01-14T23:30:57.129Z,11.93
2019-01-14T23:33:26.789Z,12.87
2019-01-14T23:35:56.474Z,11.03
2019-01-14T23:38:26.230Z,19.00
2019-01-14T23:40:56.106Z,10.60
2019-01-14T23:43:25.936Z,14.73
2019-01-14T23:45:55.657Z,17.27
2019-01-14T23:48:25.490Z,19.10
2019-01-14T23:50:55.157Z,13.50
2019-01-14T23:53:24.940Z,11.73
2019-01-14T23:55:54.691Z,13.33
2019-01-14T23:58:24.466Z,12.33
